createdAt,value
2022-08-03T00:01:37.652Z,98795.44
2022-08-03T00:04:06.370Z,98794.56
2022-08-03T00:06:36.931Z,98791.38
2022-08-03T00:09:07.633Z,98794.09
2022-08-03T00:11:35.105Z,98787.03
2022-08-03T00:14:02.454Z,98790.56
2022-08-03T00:16:29.535Z,98790.16
2022-08-03T00:18:56.531Z,98786.09
2022-08-03T00:21:23.647Z,98790.78
2022-08-03T00:23:52.719Z,98793.31
2022-08-03T00:26:21.900Z,98790.84
2022-08-03T00:28:50.134Z,98783.03
2022-08-03T00:31:17.197Z,98791.59
2022-08-03T00:34:03.269Z,98788.41
2022-08-03T00:36:30.647Z,98789.19
2022-08-03T00:38:57.687Z,98778.47
2022-08-03T00:41:24.723Z,98782.47
2022-08-03T00:43:51.685Z,98782.38
2022-08-03T00:46:21.819Z,98782.47
2022-08-03T00:48:53.322Z,98775.78
2022-08-03T00:51:24.090Z,98766.69
2022-08-03T00:53:51.473Z,98775.53
2022-08-03T00:56:18.872Z,98771.09
2022-08-03T00:58:47.257Z,98772.75
2022-08-03T01:01:15.346Z,98777.72
2022-08-03T01:03:42.473Z,98776.16
2022-08-03T01:06:23.233Z,98767.88
2022-08-03T01:09:20.284Z,98770.88
2022-08-03T01:12:40.348Z,98766.38
2022-08-03T01:15:15.737Z,98758.63
2022-08-03T01:18:15.005Z,98762.50
2022-08-03T01:20:48.858Z,98758.84
2022-08-03T01:23:39.598Z,98762.22
2022-08-03T01:26:22.914Z,98754.00
2022-08-03T01:29:30.976Z,98752.41
2022-08-03T01:32:53.348Z,98746.91
2022-08-03T01:35:01.026Z,98743.09
2022-08-03T01:37:38.874Z,98747.22
2022-08-03T01:40:09.159Z,98747.59
2022-08-03T01:42:39.887Z,98745.69
2022-08-03T01:45:10.826Z,98739.38
2022-08-03T01:47:40.538Z,98735.88
2022-08-03T01:50:10.844Z,98735.38
2022-08-03T01:52:44.693Z,98738.16
2022-08-03T01:55:13.853Z,98733.56
2022-08-03T01:58:05.937Z,98740.88
2022-08-03T02:00:37.301Z,98732.47
2022-08-03T02:03:10.619Z,98733.56
2022-08-03T02:05:43.753Z,98728.13
2022-08-03T02:08:15.764Z,98728.78
2022-08-03T02:10:46.169Z,98729.78
2022-08-03T02:13:15.996Z,98721.34
2022-08-03T02:15:44.827Z,98721.34
2022-08-03T02:18:13.457Z,98726.16
2022-08-03T02:20:43.486Z,98733.19
2022-08-03T02:23:10.671Z,98734.72
2022-08-03T02:26:03.112Z,98736.31
2022-08-03T02:28:37.624Z,98739.22
2022-08-03T02:31:16.472Z,98732.34
2022-08-03T02:33:50.482Z,98730.69
2022-08-03T02:36:23.484Z,98735.75
2022-08-03T02:38:57.205Z,98731.53
2022-08-03T02:41:43.316Z,98732.09
2022-08-03T02:44:12.901Z,98728.53
2022-08-03T02:46:46.578Z,98725.13
2022-08-03T02:49:40.462Z,98727.81
2022-08-03T02:52:12.613Z,98729.34
2022-08-03T02:54:46.191Z,98725.06
2022-08-03T02:57:15.301Z,98721.13
2022-08-03T02:59:44.520Z,98729.66
2022-08-03T03:02:14.725Z,98727.31
2022-08-03T03:04:58.837Z,98720.97
2022-08-03T03:07:39.799Z,98721.81
2022-08-03T03:10:24.817Z,98720.28
2022-08-03T03:12:56.696Z,98720.28
2022-08-03T03:15:28.533Z,98724.56
2022-08-03T03:17:57.034Z,98717.06
2022-08-03T03:20:30.110Z,98723.22
2022-08-03T03:23:01.079Z,98724.63
2022-08-03T03:25:35.014Z,98720.72
2022-08-03T03:28:03.587Z,98721.53
2022-08-03T03:30:34.580Z,98719.47
2022-08-03T03:33:02.769Z,98719.22
2022-08-03T03:35:31.532Z,98716.44
2022-08-03T03:38:07.079Z,98713.25
2022-08-03T03:40:36.779Z,98722.13
2022-08-03T03:43:07.981Z,98718.97
2022-08-03T03:45:36.001Z,98714.13
2022-08-03T03:48:05.477Z,98725.56
2022-08-03T03:50:35.492Z,98722.44
2022-08-03T03:53:04.509Z,98721.56
2022-08-03T03:55:31.715Z,98717.75
2022-08-03T03:57:58.717Z,98726.13
2022-08-03T04:00:25.723Z,98720.50
2022-08-03T04:02:52.711Z,98714.59
2022-08-03T04:05:38.690Z,98720.72
2022-08-03T04:08:34.435Z,98726.22
2022-08-03T04:11:15.487Z,98722.13
2022-08-03T04:13:51.677Z,98723.69
2022-08-03T04:16:23.962Z,98731.13
2022-08-03T04:19:04.486Z,98724.31
2022-08-03T04:21:35.301Z,98724.63
2022-08-03T04:24:08.318Z,98730.84
2022-08-03T04:26:40.456Z,98726.50
2022-08-03T04:29:10.500Z,98728.47
2022-08-03T04:31:41.876Z,98730.84
2022-08-03T04:34:09.209Z,98732.53
2022-08-03T04:36:47.804Z,98736.94
2022-08-03T04:39:26.879Z,98735.03
2022-08-03T04:42:08.242Z,98734.41
2022-08-03T04:44:42.547Z,98737.50
2022-08-03T04:47:09.632Z,98735.47
2022-08-03T04:49:37.996Z,98740.97
2022-08-03T04:52:07.875Z,98735.47
2022-08-03T04:54:50.585Z,98740.19
2022-08-03T04:57:23.089Z,98741.34
2022-08-03T05:00:02.167Z,98741.56
2022-08-03T05:02:31.326Z,98746.78
2022-08-03T05:04:58.706Z,98743.28
2022-08-03T05:07:25.673Z,98744.81
2022-08-03T05:10:01.816Z,98737.66
2022-08-03T05:12:32.926Z,98734.31
2022-08-03T05:15:01.195Z,98744.69
2022-08-03T05:17:28.889Z,98743.38
2022-08-03T05:19:56.526Z,98748.25
2022-08-03T05:22:23.871Z,98746.00
2022-08-03T05:24:50.729Z,98749.13
2022-08-03T05:27:19.333Z,98748.25
2022-08-03T05:29:47.817Z,98746.94
2022-08-03T05:32:15.531Z,98748.94
2022-08-03T05:34:43.379Z,98748.03
2022-08-03T05:37:10.612Z,98752.41
2022-08-03T05:39:38.119Z,98748.44
2022-08-03T05:42:05.042Z,98754.09
2022-08-03T05:44:32.128Z,98746.00
2022-08-03T05:46:59.451Z,98747.72
2022-08-03T05:49:26.428Z,98756.09
2022-08-03T05:52:00.043Z,98752.19
2022-08-03T05:54:55.556Z,98752.53
2022-08-03T05:57:23.111Z,98750.22
2022-08-03T05:59:55.607Z,98752.78
2022-08-03T06:02:27.134Z,98752.78
2022-08-03T06:04:54.585Z,98752.91
2022-08-03T06:07:21.689Z,98753.41
2022-08-03T06:10:35.060Z,98746.84
2022-08-03T06:12:36.205Z,98742.28
2022-08-03T06:15:04.980Z,98749.50
2022-08-03T06:17:37.743Z,98747.19
2022-08-03T06:20:06.147Z,98743.34
2022-08-03T06:22:33.074Z,98739.81
2022-08-03T06:25:04.173Z,98738.69
2022-08-03T06:27:37.256Z,98742.78
2022-08-03T06:30:05.477Z,98741.28
2022-08-03T06:32:32.461Z,98735.47
2022-08-03T06:34:59.910Z,98733.94
2022-08-03T06:37:27.176Z,98743.97
2022-08-03T06:39:54.218Z,98733.44
2022-08-03T06:42:22.539Z,98733.13
2022-08-03T06:44:49.984Z,98734.00
2022-08-03T06:47:17.200Z,98732.09
2022-08-03T06:49:44.001Z,98737.31
2022-08-03T06:52:37.744Z,98736.63
2022-08-03T06:55:06.248Z,98739.09
2022-08-03T06:57:33.043Z,98736.38
2022-08-03T07:00:08.446Z,98738.41
2022-08-03T07:02:39.813Z,98736.50
2022-08-03T07:05:07.532Z,98738.50
2022-08-03T07:07:34.412Z,98745.28
2022-08-03T07:10:02.406Z,98737.84
2022-08-03T07:12:30.456Z,98743.84
2022-08-03T07:15:01.166Z,98738.41
2022-08-03T07:17:34.249Z,98736.88
2022-08-03T07:20:04.281Z,98736.16
2022-08-03T07:22:31.270Z,98735.78
2022-08-03T07:24:58.578Z,98733.09
2022-08-03T07:27:27.035Z,98727.22
2022-08-03T07:29:55.168Z,98720.13
2022-08-03T07:32:22.145Z,98729.25
2022-08-03T07:34:49.091Z,98728.84
2022-08-03T07:37:15.866Z,98726.13
2022-08-03T07:39:42.739Z,98724.94
2022-08-03T07:42:09.670Z,98727.69
2022-08-03T07:44:36.376Z,98732.00
2022-08-03T07:47:03.357Z,98727.19
2022-08-03T07:49:30.585Z,98731.13
2022-08-03T07:52:16.434Z,98728.28
2022-08-03T07:54:43.532Z,98730.91
2022-08-03T07:57:10.277Z,98726.84
2022-08-03T08:00:01.863Z,98727.53
2022-08-03T08:02:26.907Z,98726.91
2022-08-03T08:04:53.704Z,98719.97
2022-08-03T08:07:20.721Z,98724.53
2022-08-03T08:09:47.631Z,98717.19
2022-08-03T08:12:15.748Z,98716.91
2022-08-03T08:14:45.672Z,98717.75
2022-08-03T08:17:13.654Z,98707.56
2022-08-03T08:19:44.570Z,98714.50
2022-08-03T08:22:30.283Z,98710.31
2022-08-03T08:25:01.504Z,98706.28
2022-08-03T08:28:29.331Z,98711.50
2022-08-03T08:30:20.829Z,98705.94
2022-08-03T08:32:49.879Z,98709.28
2022-08-03T08:35:18.665Z,98711.25
2022-08-03T08:37:50.791Z,98707.81
2022-08-03T08:40:22.154Z,98711.31
2022-08-03T08:42:58.840Z,98706.13
2022-08-03T08:45:27.544Z,98713.44
2022-08-03T08:48:01.705Z,98698.69
2022-08-03T08:50:31.928Z,98704.31
2022-08-03T08:53:03.198Z,98705.22
2022-08-03T08:55:58.669Z,98707.91
2022-08-03T08:58:22.342Z,98696.22
2022-08-03T09:00:50.807Z,98701.81
2022-08-03T09:03:29.213Z,98705.84
2022-08-03T09:06:02.111Z,98708.88
2022-08-03T09:08:31.614Z,98706.41
2022-08-03T09:10:58.874Z,98712.41
2022-08-03T09:13:26.516Z,98710.84
2022-08-03T09:16:16.405Z,98701.34
2022-08-03T09:18:53.268Z,98708.09
2022-08-03T09:21:32.229Z,98705.16
2022-08-03T09:24:05.381Z,98708.50
2022-08-03T09:26:36.589Z,98701.91
2022-08-03T09:29:14.745Z,98697.72
2022-08-03T09:31:46.961Z,98703.31
2022-08-03T09:34:18.078Z,98695.22
2022-08-03T09:36:49.681Z,98689.03
2022-08-03T09:39:41.201Z,98699.59
2022-08-03T09:42:10.471Z,98700.38
2022-08-03T09:44:42.203Z,98688.44
2022-08-03T09:47:30.928Z,98693.72
2022-08-03T09:50:05.274Z,98688.78
2022-08-03T09:52:49.999Z,98688.19
2022-08-03T09:56:33.467Z,98684.81
2022-08-03T09:58:12.865Z,98678.44
2022-08-03T10:01:06.289Z,98678.16
2022-08-03T10:04:02.695Z,98673.16
2022-08-03T10:06:25.495Z,98669.19
2022-08-03T10:09:16.405Z,98676.25
2022-08-03T10:11:47.017Z,98676.91
2022-08-03T10:14:19.061Z,98675.50
2022-08-03T10:16:48.118Z,98666.34
2022-08-03T10:19:15.743Z,98670.63
2022-08-03T10:21:51.116Z,98664.53
2022-08-03T10:24:26.827Z,98660.34
2022-08-03T10:27:03.720Z,98661.75
2022-08-03T10:29:42.807Z,98658.19
2022-08-03T10:32:20.562Z,98658.50
2022-08-03T10:34:52.125Z,98655.06
2022-08-03T10:37:33.295Z,98646.31
2022-08-03T10:40:02.716Z,98642.69
2022-08-03T10:42:31.812Z,98643.97
2022-08-03T10:45:18.192Z,98635.66
2022-08-03T10:47:48.284Z,98631.84
2022-08-03T10:50:15.885Z,98632.88
2022-08-03T10:53:02.125Z,98631.25
2022-08-03T10:55:55.424Z,98626.63
2022-08-03T10:58:57.512Z,98629.16
2022-08-03T11:01:58.233Z,98621.44
2022-08-03T11:04:29.245Z,98627.53
2022-08-03T11:07:25.292Z,98621.50
2022-08-03T11:09:56.497Z,98627.03
2022-08-03T11:12:28.488Z,98621.81
2022-08-03T11:15:32.397Z,98621.78
2022-08-03T11:18:13.481Z,98609.97
2022-08-03T11:20:50.573Z,98615.25
2022-08-03T11:24:03.384Z,98598.25
2022-08-03T11:26:28.198Z,98607.97
2022-08-03T11:29:35.248Z,98598.22
2022-08-03T11:32:02.353Z,98609.59
2022-08-03T11:34:29.290Z,98597.66
2022-08-03T11:37:28.803Z,98596.00
2022-08-03T11:39:58.489Z,98598.13
2022-08-03T11:42:26.275Z,98601.41
2022-08-03T11:44:58.860Z,98604.91
2022-08-03T11:47:29.516Z,98604.38
2022-08-03T11:50:01.784Z,98588.47
2022-08-03T11:52:38.362Z,98592.88
2022-08-03T11:55:11.606Z,98594.50
2022-08-03T11:59:17.091Z,98591.84
2022-08-03T12:00:32.286Z,98593.38
2022-08-03T12:03:12.568Z,98579.00
2022-08-03T12:05:51.842Z,98584.34
2022-08-03T12:08:31.305Z,98577.00
2022-08-03T12:11:05.691Z,98578.56
2022-08-03T12:14:08.891Z,98585.38
2022-08-03T12:16:36.669Z,98578.44
2022-08-03T12:19:09.046Z,98579.72
2022-08-03T12:21:57.071Z,98575.06
2022-08-03T12:24:24.374Z,98583.59
2022-08-03T12:26:56.778Z,98571.69
2022-08-03T12:29:26.756Z,98571.41
2022-08-03T12:31:53.808Z,98571.91
2022-08-03T12:34:20.825Z,98574.75
2022-08-03T12:36:55.944Z,98565.94
2022-08-03T12:39:30.936Z,98554.09
2022-08-03T12:41:58.143Z,98556.53
2022-08-03T12:44:36.378Z,98558.72
2022-08-03T12:47:06.591Z,98555.66
2022-08-03T12:49:49.104Z,98550.03
2022-08-03T12:52:18.849Z,98555.69
2022-08-03T12:55:00.875Z,98556.94
2022-08-03T12:58:07.460Z,98545.22
2022-08-03T13:00:34.386Z,98552.63
2022-08-03T13:05:55.001Z,98546.50
2022-08-03T13:08:25.625Z,98548.22
2022-08-03T13:10:52.674Z,98546.22
2022-08-03T13:13:38.020Z,98542.25
2022-08-03T13:16:05.000Z,98545.84
2022-08-03T13:18:31.898Z,98546.53
2022-08-03T13:21:00.796Z,98539.56
2022-08-03T13:23:27.909Z,98536.19
2022-08-03T13:25:55.286Z,98543.13
2022-08-03T13:28:23.638Z,98545.75
2022-08-03T13:30:50.613Z,98539.28
2022-08-03T13:33:18.461Z,98544.66
2022-08-03T13:35:45.488Z,98533.84
2022-08-03T13:38:12.695Z,98539.25
2022-08-03T13:40:42.335Z,98525.56
2022-08-03T13:43:09.405Z,98530.09
2022-08-03T13:45:36.398Z,98531.19
2022-08-03T13:48:03.333Z,98534.72
2022-08-03T13:50:31.423Z,98525.78
2022-08-03T13:52:58.373Z,98526.53
2022-08-03T13:55:25.468Z,98512.00
2022-08-03T13:58:03.456Z,98522.31
2022-08-03T14:00:32.375Z,98527.19
2022-08-03T14:03:21.322Z,98522.09
2022-08-03T14:05:51.177Z,98523.47
2022-08-03T14:08:18.302Z,98518.75
2022-08-03T14:10:47.117Z,98508.88
2022-08-03T14:13:17.551Z,98512.44
2022-08-03T14:15:50.870Z,98506.00
2022-08-03T14:18:27.868Z,98509.91
2022-08-03T14:21:03.402Z,98504.84
2022-08-03T14:23:33.552Z,98503.56
2022-08-03T14:26:03.175Z,98491.41
2022-08-03T14:28:30.046Z,98506.97
2022-08-03T14:30:57.164Z,98505.25
2022-08-03T14:33:25.459Z,98501.59
2022-08-03T14:35:53.385Z,98502.13
2022-08-03T14:38:21.671Z,98491.78
2022-08-03T14:40:49.312Z,98500.53
2022-08-03T14:43:22.861Z,98497.66
2022-08-03T14:45:53.812Z,98494.31
2022-08-03T14:50:30.561Z,98498.69
2022-08-03T14:51:10.252Z,98501.81
2022-08-03T14:53:37.257Z,98493.84
2022-08-03T14:56:09.651Z,98494.63
2022-08-03T14:58:37.950Z,98492.56
2022-08-03T15:02:06.202Z,98496.44
2022-08-03T15:03:51.785Z,98486.09
2022-08-03T15:06:18.817Z,98486.09
2022-08-03T15:09:13.777Z,98483.22
2022-08-03T15:11:36.263Z,98477.53
2022-08-03T15:14:07.313Z,98472.56
2022-08-03T15:16:36.006Z,98470.16
2022-08-03T15:19:03.077Z,98461.38
2022-08-03T15:21:49.966Z,98463.22
2022-08-03T15:24:18.341Z,98460.38
2022-08-03T15:26:49.256Z,98460.34
2022-08-03T15:30:07.476Z,98452.19
2022-08-03T15:32:10.022Z,98453.22
2022-08-03T15:34:36.950Z,98451.19
2022-08-03T15:37:16.433Z,98455.53
2022-08-03T15:39:58.812Z,98445.41
2022-08-03T15:42:30.136Z,98443.66
2022-08-03T15:44:57.163Z,98438.44
2022-08-03T15:47:24.402Z,98446.78
2022-08-03T15:49:51.423Z,98438.94
2022-08-03T15:52:18.298Z,98443.69
2022-08-03T15:54:45.209Z,98434.97
2022-08-03T15:57:12.077Z,98447.09
2022-08-03T15:59:38.944Z,98441.22
2022-08-03T16:02:05.816Z,98430.50
2022-08-03T16:04:32.699Z,98435.25
2022-08-03T16:06:59.561Z,98422.16
2022-08-03T16:09:42.113Z,98428.75
2022-08-03T16:12:14.569Z,98431.28
2022-08-03T16:14:51.917Z,98425.84
2022-08-03T16:17:20.432Z,98422.88
2022-08-03T16:19:47.485Z,98418.78
2022-08-03T16:22:14.716Z,98415.75
2022-08-03T16:24:41.694Z,98419.09
2022-08-03T16:27:17.328Z,98411.44
2022-08-03T16:29:50.436Z,98410.16
2022-08-03T16:32:17.525Z,98412.69
2022-08-03T16:34:47.425Z,98413.84
2022-08-03T16:37:37.123Z,98412.63
2022-08-03T16:40:01.459Z,98410.44
2022-08-03T16:42:28.408Z,98410.19
2022-08-03T16:44:55.587Z,98406.59
2022-08-03T16:47:23.035Z,98408.34
2022-08-03T16:49:52.939Z,98409.75
2022-08-03T16:52:22.789Z,98403.38
2022-08-03T16:54:53.118Z,98404.00
2022-08-03T16:57:56.765Z,98404.34
2022-08-03T17:00:11.914Z,98404.63
2022-08-03T17:02:48.475Z,98409.19
2022-08-03T17:05:46.981Z,98409.53
2022-08-03T17:08:15.958Z,98400.78
2022-08-03T17:10:44.517Z,98405.31
2022-08-03T17:13:21.852Z,98402.81
2022-08-03T17:16:01.419Z,98405.31
2022-08-03T17:18:37.850Z,98410.59
2022-08-03T17:21:11.167Z,98408.41
2022-08-03T17:24:12.125Z,98413.41
2022-08-03T17:26:50.087Z,98411.84
2022-08-03T17:29:23.196Z,98404.66
2022-08-03T17:31:53.019Z,98414.97
2022-08-03T17:34:27.307Z,98419.03
2022-08-03T17:37:04.557Z,98418.41
2022-08-03T17:39:57.524Z,98427.28
2022-08-03T17:42:30.569Z,98424.72
2022-08-03T17:45:02.065Z,98423.63
2022-08-03T17:47:42.578Z,98414.41
2022-08-03T17:51:00.633Z,98418.63
2022-08-03T17:53:43.078Z,98425.81
2022-08-03T17:56:40.679Z,98432.34
2022-08-03T17:59:51.891Z,98429.03
2022-08-03T18:03:16.050Z,98427.59
2022-08-03T18:06:10.540Z,98434.16
2022-08-03T18:08:49.631Z,98438.97
2022-08-03T18:11:22.989Z,98434.03
2022-08-03T18:14:20.973Z,98444.47
2022-08-03T18:17:06.620Z,98440.22
2022-08-03T18:20:02.453Z,98435.69
2022-08-03T18:22:27.937Z,98440.00
2022-08-03T18:25:00.652Z,98443.84
2022-08-03T18:27:42.649Z,98440.97
2022-08-03T18:30:15.132Z,98441.97
2022-08-03T18:32:44.125Z,98441.00
2022-08-03T18:35:52.910Z,98444.72
2022-08-03T18:38:18.829Z,98440.94
2022-08-03T18:40:48.563Z,98442.69
2022-08-03T18:43:17.559Z,98442.09
2022-08-03T18:45:55.953Z,98438.06
2022-08-03T18:48:40.309Z,98444.56
2022-08-03T18:51:33.863Z,98453.22
2022-08-03T18:54:45.602Z,98439.81
2022-08-03T18:57:12.579Z,98442.97
2022-08-03T19:00:02.430Z,98442.72
2022-08-03T19:02:40.890Z,98446.53
2022-08-03T19:05:21.363Z,98444.94
2022-08-03T19:08:08.755Z,98447.28
2022-08-03T19:10:57.742Z,98455.22
2022-08-03T19:13:44.473Z,98452.00
2022-08-03T19:16:34.824Z,98459.47
2022-08-03T19:19:02.379Z,98457.69
2022-08-03T19:21:33.475Z,98462.91
2022-08-03T19:24:07.987Z,98462.28
2022-08-03T19:26:39.542Z,98459.50
2022-08-03T19:29:14.879Z,98467.41
2022-08-03T19:31:59.061Z,98466.03
2022-08-03T19:34:32.754Z,98462.91
2022-08-03T19:37:00.939Z,98478.88
2022-08-03T19:39:31.880Z,98477.03
2022-08-03T19:42:20.098Z,98475.28
2022-08-03T19:44:55.805Z,98481.97
2022-08-03T19:47:29.733Z,98474.88
2022-08-03T19:50:06.169Z,98482.38
2022-08-03T19:52:40.218Z,98483.19
2022-08-03T19:55:12.175Z,98486.53
2022-08-03T19:58:01.071Z,98486.63
2022-08-03T20:00:30.556Z,98489.03
2022-08-03T20:03:06.846Z,98489.34
2022-08-03T20:05:52.151Z,98484.03
2022-08-03T20:08:36.524Z,98483.03
2022-08-03T20:11:11.671Z,98479.28
2022-08-03T20:13:41.286Z,98487.41
2022-08-03T20:16:10.285Z,98489.13
2022-08-03T20:18:39.527Z,98494.09
2022-08-03T20:21:14.824Z,98487.22
2022-08-03T20:24:02.920Z,98487.00
2022-08-03T20:26:32.986Z,98484.75
2022-08-03T20:29:09.020Z,98503.31
2022-08-03T20:31:37.500Z,98505.06
2022-08-03T20:34:06.977Z,98498.72
2022-08-03T20:36:36.244Z,98499.13
2022-08-03T20:39:07.653Z,98488.78
2022-08-03T20:41:52.030Z,98490.16
2022-08-03T20:44:25.832Z,98490.66
2022-08-03T20:47:00.309Z,98490.53
2022-08-03T20:49:29.399Z,98494.28
2022-08-03T20:55:12.947Z,98493.91
2022-08-03T20:57:42.678Z,98496.59
2022-08-03T21:00:18.757Z,98491.94
2022-08-03T21:02:49.289Z,98492.78
2022-08-03T21:05:21.254Z,98496.44
2022-08-03T21:08:11.865Z,98499.06
2022-08-03T21:10:45.485Z,98500.22
2022-08-03T21:13:12.617Z,98490.00
2022-08-03T21:13:23.507Z,98499.56
2022-08-03T21:16:12.230Z,98486.94
2022-08-03T21:19:03.797Z,98498.06
2022-08-03T21:21:33.126Z,98494.91
2022-08-03T21:24:06.266Z,98488.91
2022-08-03T21:26:38.446Z,98490.91
2022-08-03T21:29:06.196Z,98491.69
2022-08-03T21:31:33.086Z,98491.00
2022-08-03T21:34:03.507Z,98479.13
2022-08-03T21:36:34.209Z,98479.25
2022-08-03T21:39:05.985Z,98481.38
2022-08-03T21:41:33.764Z,98476.31
2022-08-03T21:44:04.261Z,98471.75
2022-08-03T21:46:37.776Z,98480.06
2022-08-03T21:50:05.553Z,98480.38
2022-08-03T21:51:59.738Z,98477.56
2022-08-03T21:54:43.929Z,98476.91
2022-08-03T21:57:26.119Z,98481.06
2022-08-03T22:00:06.543Z,98481.06
2022-08-03T22:02:35.385Z,98476.31
2022-08-03T22:05:05.072Z,98479.69
2022-08-03T22:07:34.149Z,98478.84
2022-08-03T22:10:04.027Z,98477.31
2022-08-03T22:12:32.314Z,98478.19
2022-08-03T22:15:02.499Z,98481.78
2022-08-03T22:17:54.730Z,98471.81
2022-08-03T22:20:22.362Z,98479.47
2022-08-03T22:22:56.583Z,98485.03
2022-08-03T22:25:31.806Z,98476.69
2022-08-03T22:28:09.779Z,98474.31
2022-08-03T22:30:38.997Z,98481.09
2022-08-03T22:33:11.276Z,98479.59
2022-08-03T22:35:51.533Z,98475.69
2022-08-03T22:38:19.264Z,98472.16
2022-08-03T22:40:50.757Z,98480.50
2022-08-03T22:43:24.552Z,98470.94
2022-08-03T22:46:10.171Z,98468.63
2022-08-03T22:48:46.739Z,98472.91
2022-08-03T22:51:16.358Z,98477.72
2022-08-03T22:53:46.277Z,98472.69
2022-08-03T22:56:14.420Z,98477.44
2022-08-03T22:58:41.364Z,98471.06
2022-08-03T23:01:14.350Z,98468.25
2022-08-03T23:03:59.632Z,98477.44
2022-08-03T23:06:35.557Z,98482.28
2022-08-03T23:09:14.110Z,98471.25
2022-08-03T23:11:46.138Z,98485.94
2022-08-03T23:14:16.062Z,98487.56
2022-08-03T23:16:46.067Z,98477.22
2022-08-03T23:19:16.418Z,98481.19
2022-08-03T23:21:53.115Z,98481.63
2022-08-03T23:24:29.703Z,98474.41
2022-08-03T23:26:58.632Z,98477.13
2022-08-03T23:29:28.765Z,98475.53
2022-08-03T23:31:57.890Z,98485.88
2022-08-03T23:34:46.245Z,98483.53
2022-08-03T23:37:18.761Z,98483.59
2022-08-03T23:39:48.717Z,98488.78
2022-08-03T23:42:19.051Z,98486.38
2022-08-03T23:44:59.317Z,98484.84
2022-08-03T23:47:46.922Z,98480.06
2022-08-03T23:50:15.888Z,98477.28
2022-08-03T23:53:18.083Z,98475.31
2022-08-03T23:56:13.260Z,98477.75
2022-08-03T23:59:29.745Z,98472.19
